sensor_id;sensor_type;location;lat;lon;timestamp;P1;durP1;ratioP1;P2;durP2;ratioP2
35919;SDS011;36160;53.370;-6.196;2022-10-16T00:01:24;3.67;;;1.45;;
35919;SDS011;36160;53.370;-6.196;2022-10-16T00:03:51;3.00;;;1.17;;
35919;SDS011;36160;53.370;-6.196;2022-10-16T00:06:18;6.95;;;1.10;;
35919;SDS011;36160;53.370;-6.196;2022-10-16T00:08:45;2.50;;;1.02;;
35919;SDS011;36160;53.370;-6.196;2022-10-16T00:11:12;8.20;;;2.42;;
35919;SDS011;36160;53.370;-6.196;2022-10-16T00:13:43;2.58;;;1.45;;
35919;SDS011;36160;53.370;-6.196;2022-10-16T00:16:10;3.88;;;1.45;;
35919;SDS011;36160;53.370;-6.196;2022-10-16T00:18:37;3.55;;;1.20;;
35919;SDS011;36160;53.370;-6.196;2022-10-16T00:21:07;2.90;;;1.65;;
35919;SDS011;36160;53.370;-6.196;2022-10-16T00:23:35;1.58;;;1.23;;
35919;SDS011;36160;53.370;-6.196;2022-10-16T00:26:02;5.90;;;1.42;;
35919;SDS011;36160;53.370;-6.196;2022-10-16T00:28:31;2.13;;;1.20;;
35919;SDS011;36160;53.370;-6.196;2022-10-16T00:30:57;11.68;;;3.78;;
35919;SDS011;36160;53.370;-6.196;2022-10-16T00:33:23;7.40;;;1.10;;
35919;SDS011;36160;53.370;-6.196;2022-10-16T00:35:49;2.10;;;1.00;;
35919;SDS011;36160;53.370;-6.196;2022-10-16T00:38:15;8.52;;;1.60;;
35919;SDS011;36160;53.370;-6.196;2022-10-16T00:40:41;12.10;;;2.30;;
35919;SDS011;36160;53.370;-6.196;2022-10-16T00:46:08;3.05;;;1.10;;
35919;SDS011;36160;53.370;-6.196;2022-10-16T00:48:38;6.25;;;1.38;;
35919;SDS011;36160;53.370;-6.196;2022-10-16T00:51:04;9.80;;;1.55;;
35919;SDS011;36160;53.370;-6.196;2022-10-16T00:53:32;4.63;;;1.33;;
35919;SDS011;36160;53.370;-6.196;2022-10-16T00:55:58;2.20;;;0.77;;
35919;SDS011;36160;53.370;-6.196;2022-10-16T00:58:23;8.63;;;1.73;;
35919;SDS011;36160;53.370;-6.196;2022-10-16T01:00:49;6.35;;;1.77;;
35919;SDS011;36160;53.370;-6.196;2022-10-16T01:03:26;4.10;;;1.00;;
35919;SDS011;36160;53.370;-6.196;2022-10-16T01:05:57;11.13;;;2.28;;
35919;SDS011;36160;53.370;-6.196;2022-10-16T01:14:10;6.50;;;1.45;;
35919;SDS011;36160;53.370;-6.196;2022-10-16T01:16:46;5.60;;;1.00;;
35919;SDS011;36160;53.370;-6.196;2022-10-16T01:21:50;6.97;;;1.40;;
35919;SDS011;36160;53.370;-6.196;2022-10-16T01:29:34;2.30;;;1.00;;
35919;SDS011;36160;53.370;-6.196;2022-10-16T01:32:10;4.75;;;1.63;;
35919;SDS011;36160;53.370;-6.196;2022-10-16T01:34:52;4.95;;;1.02;;
35919;SDS011;36160;53.370;-6.196;2022-10-16T01:37:31;6.55;;;1.15;;
35919;SDS011;36160;53.370;-6.196;2022-10-16T01:42:34;4.90;;;1.40;;
35919;SDS011;36160;53.370;-6.196;2022-10-16T01:45:03;8.02;;;1.88;;
35919;SDS011;36160;53.370;-6.196;2022-10-16T01:47:32;4.07;;;1.48;;
35919;SDS011;36160;53.370;-6.196;2022-10-16T01:50:01;3.88;;;1.45;;
35919;SDS011;36160;53.370;-6.196;2022-10-16T01:52:30;6.40;;;1.42;;
35919;SDS011;36160;53.370;-6.196;2022-10-16T01:54:59;12.60;;;1.85;;
35919;SDS011;36160;53.370;-6.196;2022-10-16T01:57:28;5.45;;;1.30;;
35919;SDS011;36160;53.370;-6.196;2022-10-16T01:59:56;3.45;;;1.05;;
35919;SDS011;36160;53.370;-6.196;2022-10-16T02:02:26;7.18;;;2.08;;
35919;SDS011;36160;53.370;-6.196;2022-10-16T02:04:58;9.63;;;1.73;;
35919;SDS011;36160;53.370;-6.196;2022-10-16T02:07:29;6.10;;;1.60;;
35919;SDS011;36160;53.370;-6.196;2022-10-16T02:09:55;4.45;;;1.35;;
35919;SDS011;36160;53.370;-6.196;2022-10-16T02:14:54;3.58;;;1.63;;
35919;SDS011;36160;53.370;-6.196;2022-10-16T02:17:20;8.50;;;1.27;;
35919;SDS011;36160;53.370;-6.196;2022-10-16T02:19:47;3.13;;;1.05;;
35919;SDS011;36160;53.370;-6.196;2022-10-16T02:22:16;8.77;;;1.33;;
35919;SDS011;36160;53.370;-6.196;2022-10-16T02:24:52;7.72;;;1.13;;
35919;SDS011;36160;53.370;-6.196;2022-10-16T02:30:19;9.52;;;1.30;;
35919;SDS011;36160;53.370;-6.196;2022-10-16T02:32:49;4.47;;;1.17;;
35919;SDS011;36160;53.370;-6.196;2022-10-16T02:35:17;4.05;;;1.02;;
35919;SDS011;36160;53.370;-6.196;2022-10-16T02:37:46;8.77;;;1.85;;
35919;SDS011;36160;53.370;-6.196;2022-10-16T02:40:13;5.53;;;1.27;;
35919;SDS011;36160;53.370;-6.196;2022-10-16T02:42:40;6.80;;;1.48;;
35919;SDS011;36160;53.370;-6.196;2022-10-16T02:45:06;2.65;;;1.00;;
35919;SDS011;36160;53.370;-6.196;2022-10-16T02:47:33;5.88;;;1.50;;
35919;SDS011;36160;53.370;-6.196;2022-10-16T02:49:59;4.88;;;1.42;;
35919;SDS011;36160;53.370;-6.196;2022-10-16T02:52:24;3.33;;;1.30;;
35919;SDS011;36160;53.370;-6.196;2022-10-16T02:54:50;6.57;;;1.35;;
35919;SDS011;36160;53.370;-6.196;2022-10-16T02:57:16;3.60;;;1.13;;
35919;SDS011;36160;53.370;-6.196;2022-10-16T02:59:42;3.50;;;1.30;;
35919;SDS011;36160;53.370;-6.196;2022-10-16T03:02:09;3.85;;;1.30;;
35919;SDS011;36160;53.370;-6.196;2022-10-16T03:04:34;3.58;;;1.33;;
35919;SDS011;36160;53.370;-6.196;2022-10-16T03:07:00;8.30;;;1.05;;
35919;SDS011;36160;53.370;-6.196;2022-10-16T03:09:26;9.45;;;2.10;;
35919;SDS011;36160;53.370;-6.196;2022-10-16T03:11:51;3.80;;;1.15;;
35919;SDS011;36160;53.370;-6.196;2022-10-16T03:14:17;1.65;;;1.00;;
35919;SDS011;36160;53.370;-6.196;2022-10-16T03:16:43;6.05;;;1.27;;
35919;SDS011;36160;53.370;-6.196;2022-10-16T03:19:08;6.13;;;1.23;;
35919;SDS011;36160;53.370;-6.196;2022-10-16T03:21:34;6.13;;;1.35;;
35919;SDS011;36160;53.370;-6.196;2022-10-16T03:23:59;4.80;;;1.00;;
35919;SDS011;36160;53.370;-6.196;2022-10-16T03:26:25;5.22;;;1.35;;
35919;SDS011;36160;53.370;-6.196;2022-10-16T03:28:51;3.22;;;1.15;;
35919;SDS011;36160;53.370;-6.196;2022-10-16T03:31:16;3.88;;;1.17;;
35919;SDS011;36160;53.370;-6.196;2022-10-16T03:33:42;4.10;;;1.52;;
35919;SDS011;36160;53.370;-6.196;2022-10-16T03:36:08;3.83;;;0.70;;
35919;SDS011;36160;53.370;-6.196;2022-10-16T03:38:33;4.32;;;1.02;;
35919;SDS011;36160;53.370;-6.196;2022-10-16T03:40:59;1.80;;;0.90;;
35919;SDS011;36160;53.370;-6.196;2022-10-16T03:43:25;3.63;;;0.88;;
35919;SDS011;36160;53.370;-6.196;2022-10-16T03:45:50;9.77;;;2.35;;
35919;SDS011;36160;53.370;-6.196;2022-10-16T03:48:17;4.45;;;0.88;;
35919;SDS011;36160;53.370;-6.196;2022-10-16T03:50:43;4.15;;;1.48;;
35919;SDS011;36160;53.370;-6.196;2022-10-16T03:53:09;10.63;;;2.65;;
35919;SDS011;36160;53.370;-6.196;2022-10-16T03:55:35;4.38;;;1.02;;
35919;SDS011;36160;53.370;-6.196;2022-10-16T03:58:01;11.48;;;2.00;;
35919;SDS011;36160;53.370;-6.196;2022-10-16T04:00:26;7.82;;;1.55;;
35919;SDS011;36160;53.370;-6.196;2022-10-16T04:02:52;3.22;;;1.20;;
35919;SDS011;36160;53.370;-6.196;2022-10-16T04:05:18;13.88;;;3.75;;
35919;SDS011;36160;53.370;-6.196;2022-10-16T04:07:43;18.38;;;1.38;;
35919;SDS011;36160;53.370;-6.196;2022-10-16T04:10:09;8.60;;;1.10;;
35919;SDS011;36160;53.370;-6.196;2022-10-16T04:12:35;2.97;;;1.00;;
35919;SDS011;36160;53.370;-6.196;2022-10-16T04:15:00;4.55;;;1.13;;
35919;SDS011;36160;53.370;-6.196;2022-10-16T04:17:26;6.82;;;0.90;;
35919;SDS011;36160;53.370;-6.196;2022-10-16T04:19:52;2.58;;;0.70;;
35919;SDS011;36160;53.370;-6.196;2022-10-16T04:22:17;4.13;;;1.08;;
35919;SDS011;36160;53.370;-6.196;2022-10-16T04:24:43;1.38;;;0.80;;
35919;SDS011;36160;53.370;-6.196;2022-10-16T04:27:09;10.40;;;2.22;;
35919;SDS011;36160;53.370;-6.196;2022-10-16T04:29:34;3.08;;;1.00;;
35919;SDS011;36160;53.370;-6.196;2022-10-16T04:32:00;6.82;;;1.15;;
35919;SDS011;36160;53.370;-6.196;2022-10-16T04:34:26;8.48;;;1.40;;
35919;SDS011;36160;53.370;-6.196;2022-10-16T04:36:51;4.22;;;0.82;;
35919;SDS011;36160;53.370;-6.196;2022-10-16T04:39:17;5.88;;;0.85;;
35919;SDS011;36160;53.370;-6.196;2022-10-16T04:41:43;1.98;;;0.70;;
35919;SDS011;36160;53.370;-6.196;2022-10-16T04:44:08;5.47;;;1.17;;
35919;SDS011;36160;53.370;-6.196;2022-10-16T04:46:34;5.63;;;0.90;;
35919;SDS011;36160;53.370;-6.196;2022-10-16T04:49:00;3.63;;;1.00;;
35919;SDS011;36160;53.370;-6.196;2022-10-16T04:51:25;3.45;;;1.70;;
35919;SDS011;36160;53.370;-6.196;2022-10-16T04:53:52;4.05;;;1.20;;
35919;SDS011;36160;53.370;-6.196;2022-10-16T04:56:19;6.00;;;0.90;;
35919;SDS011;36160;53.370;-6.196;2022-10-16T04:58:46;5.13;;;2.28;;
35919;SDS011;36160;53.370;-6.196;2022-10-16T05:01:12;9.38;;;1.17;;
35919;SDS011;36160;53.370;-6.196;2022-10-16T05:03:38;4.00;;;1.10;;
35919;SDS011;36160;53.370;-6.196;2022-10-16T05:06:05;4.70;;;0.93;;
35919;SDS011;36160;53.370;-6.196;2022-10-16T05:08:31;1.55;;;0.82;;
35919;SDS011;36160;53.370;-6.196;2022-10-16T05:10:56;6.90;;;1.60;;
35919;SDS011;36160;53.370;-6.196;2022-10-16T05:13:22;3.00;;;0.90;;
35919;SDS011;36160;53.370;-6.196;2022-10-16T05:15:48;5.32;;;1.23;;
35919;SDS011;36160;53.370;-6.196;2022-10-16T05:18:14;5.70;;;1.00;;
35919;SDS011;36160;53.370;-6.196;2022-10-16T05:20:41;14.98;;;1.60;;
35919;SDS011;36160;53.370;-6.196;2022-10-16T05:23:06;4.78;;;0.77;;
35919;SDS011;36160;53.370;-6.196;2022-10-16T05:25:32;3.70;;;1.80;;
35919;SDS011;36160;53.370;-6.196;2022-10-16T05:27:58;3.67;;;1.75;;
35919;SDS011;36160;53.370;-6.196;2022-10-16T05:30:24;5.10;;;1.20;;
35919;SDS011;36160;53.370;-6.196;2022-10-16T05:32:49;6.70;;;1.20;;
35919;SDS011;36160;53.370;-6.196;2022-10-16T05:35:16;4.40;;;1.20;;
35919;SDS011;36160;53.370;-6.196;2022-10-16T05:37:43;4.57;;;1.33;;
35919;SDS011;36160;53.370;-6.196;2022-10-16T05:40:09;4.38;;;1.50;;
35919;SDS011;36160;53.370;-6.196;2022-10-16T05:42:35;7.90;;;1.30;;
35919;SDS011;36160;53.370;-6.196;2022-10-16T05:45:00;3.42;;;0.80;;
35919;SDS011;36160;53.370;-6.196;2022-10-16T05:47:26;4.22;;;1.05;;
35919;SDS011;36160;53.370;-6.196;2022-10-16T05:49:52;4.63;;;1.13;;
35919;SDS011;36160;53.370;-6.196;2022-10-16T05:52:18;6.75;;;1.38;;
35919;SDS011;36160;53.370;-6.196;2022-10-16T05:54:44;7.47;;;1.65;;
35919;SDS011;36160;53.370;-6.196;2022-10-16T05:57:09;6.15;;;1.35;;
35919;SDS011;36160;53.370;-6.196;2022-10-16T05:59:35;9.95;;;1.85;;
35919;SDS011;36160;53.370;-6.196;2022-10-16T06:02:01;8.50;;;1.10;;
35919;SDS011;36160;53.370;-6.196;2022-10-16T06:04:27;13.52;;;1.73;;
35919;SDS011;36160;53.370;-6.196;2022-10-16T06:06:52;6.68;;;1.65;;
35919;SDS011;36160;53.370;-6.196;2022-10-16T06:09:18;9.25;;;1.50;;
35919;SDS011;36160;53.370;-6.196;2022-10-16T06:11:44;5.13;;;0.90;;
35919;SDS011;36160;53.370;-6.196;2022-10-16T06:14:09;8.07;;;3.35;;
35919;SDS011;36160;53.370;-6.196;2022-10-16T06:16:35;5.57;;;1.15;;
35919;SDS011;36160;53.370;-6.196;2022-10-16T06:19:02;7.45;;;1.83;;
35919;SDS011;36160;53.370;-6.196;2022-10-16T06:21:31;7.68;;;1.10;;
35919;SDS011;36160;53.370;-6.196;2022-10-16T06:23:57;7.43;;;1.55;;
35919;SDS011;36160;53.370;-6.196;2022-10-16T06:26:24;23.88;;;2.03;;
35919;SDS011;36160;53.370;-6.196;2022-10-16T06:28:53;6.70;;;2.00;;
35919;SDS011;36160;53.370;-6.196;2022-10-16T06:31:20;7.57;;;1.73;;
35919;SDS011;36160;53.370;-6.196;2022-10-16T06:33:49;8.30;;;1.08;;
35919;SDS011;36160;53.370;-6.196;2022-10-16T06:36:16;4.85;;;1.13;;
35919;SDS011;36160;53.370;-6.196;2022-10-16T06:38:43;11.70;;;2.15;;
35919;SDS011;36160;53.370;-6.196;2022-10-16T06:41:12;6.55;;;1.30;;
35919;SDS011;36160;53.370;-6.196;2022-10-16T06:43:40;3.08;;;0.82;;
35919;SDS011;36160;53.370;-6.196;2022-10-16T06:46:07;5.55;;;1.35;;
35919;SDS011;36160;53.370;-6.196;2022-10-16T06:48:35;4.03;;;1.10;;
35919;SDS011;36160;53.370;-6.196;2022-10-16T06:51:14;11.25;;;2.05;;
35919;SDS011;36160;53.370;-6.196;2022-10-16T06:53:43;7.13;;;1.10;;
35919;SDS011;36160;53.370;-6.196;2022-10-16T06:56:20;1.88;;;0.95;;
35919;SDS011;36160;53.370;-6.196;2022-10-16T06:58:46;5.53;;;1.30;;
35919;SDS011;36160;53.370;-6.196;2022-10-16T07:01:13;9.05;;;1.90;;
35919;SDS011;36160;53.370;-6.196;2022-10-16T07:03:40;9.82;;;1.60;;
35919;SDS011;36160;53.370;-6.196;2022-10-16T07:06:07;7.30;;;2.08;;
35919;SDS011;36160;53.370;-6.196;2022-10-16T07:08:35;14.52;;;2.03;;
35919;SDS011;36160;53.370;-6.196;2022-10-16T07:11:03;5.45;;;1.70;;
35919;SDS011;36160;53.370;-6.196;2022-10-16T07:13:32;8.25;;;1.45;;
35919;SDS011;36160;53.370;-6.196;2022-10-16T07:16:03;4.47;;;1.83;;
35919;SDS011;36160;53.370;-6.196;2022-10-16T07:18:33;7.03;;;1.70;;
35919;SDS011;36160;53.370;-6.196;2022-10-16T07:21:03;9.70;;;1.60;;
35919;SDS011;36160;53.370;-6.196;2022-10-16T07:23:30;11.97;;;1.53;;
35919;SDS011;36160;53.370;-6.196;2022-10-16T07:25:55;4.40;;;1.55;;
35919;SDS011;36160;53.370;-6.196;2022-10-16T07:28:21;9.93;;;1.80;;
35919;SDS011;36160;53.370;-6.196;2022-10-16T07:30:47;4.20;;;1.33;;
35919;SDS011;36160;53.370;-6.196;2022-10-16T07:33:13;5.18;;;2.88;;
35919;SDS011;36160;53.370;-6.196;2022-10-16T07:35:46;6.68;;;1.20;;
35919;SDS011;36160;53.370;-6.196;2022-10-16T07:38:16;8.50;;;1.67;;
35919;SDS011;36160;53.370;-6.196;2022-10-16T07:40:42;9.25;;;2.50;;
35919;SDS011;36160;53.370;-6.196;2022-10-16T07:43:07;5.25;;;1.08;;
35919;SDS011;36160;53.370;-6.196;2022-10-16T07:45:33;7.15;;;1.42;;
35919;SDS011;36160;53.370;-6.196;2022-10-16T07:47:58;3.83;;;1.40;;
35919;SDS011;36160;53.370;-6.196;2022-10-16T07:50:24;13.52;;;1.88;;
35919;SDS011;36160;53.370;-6.196;2022-10-16T07:52:50;5.45;;;2.65;;
35919;SDS011;36160;53.370;-6.196;2022-10-16T07:55:15;8.75;;;1.98;;
35919;SDS011;36160;53.370;-6.196;2022-10-16T07:57:41;9.77;;;2.35;;
35919;SDS011;36160;53.370;-6.196;2022-10-16T08:00:07;9.15;;;1.40;;
35919;SDS011;36160;53.370;-6.196;2022-10-16T08:02:38;10.00;;;1.75;;
35919;SDS011;36160;53.370;-6.196;2022-10-16T08:05:06;14.88;;;1.80;;
35919;SDS011;36160;53.370;-6.196;2022-10-16T08:07:32;4.32;;;1.30;;
35919;SDS011;36160;53.370;-6.196;2022-10-16T08:09:58;2.15;;;1.00;;
35919;SDS011;36160;53.370;-6.196;2022-10-16T08:12:25;11.57;;;2.70;;
35919;SDS011;36160;53.370;-6.196;2022-10-16T08:14:51;3.85;;;0.90;;
35919;SDS011;36160;53.370;-6.196;2022-10-16T08:17:17;4.65;;;1.20;;
35919;SDS011;36160;53.370;-6.196;2022-10-16T08:19:46;3.17;;;1.27;;
35919;SDS011;36160;53.370;-6.196;2022-10-16T08:22:12;6.65;;;1.50;;
35919;SDS011;36160;53.370;-6.196;2022-10-16T08:24:38;6.05;;;1.20;;
35919;SDS011;36160;53.370;-6.196;2022-10-16T08:27:04;6.65;;;2.15;;
35919;SDS011;36160;53.370;-6.196;2022-10-16T08:29:30;8.75;;;2.92;;
35919;SDS011;36160;53.370;-6.196;2022-10-16T08:31:56;7.75;;;1.73;;
35919;SDS011;36160;53.370;-6.196;2022-10-16T08:34:21;9.23;;;1.50;;
35919;SDS011;36160;53.370;-6.196;2022-10-16T08:36:47;8.13;;;1.45;;
35919;SDS011;36160;53.370;-6.196;2022-10-16T08:39:13;6.93;;;1.17;;
35919;SDS011;36160;53.370;-6.196;2022-10-16T08:49:46;6.30;;;1.13;;
35919;SDS011;36160;53.370;-6.196;2022-10-16T08:52:25;4.72;;;1.10;;
35919;SDS011;36160;53.370;-6.196;2022-10-16T08:54:56;8.32;;;1.23;;
35919;SDS011;36160;53.370;-6.196;2022-10-16T08:57:22;9.30;;;1.45;;
35919;SDS011;36160;53.370;-6.196;2022-10-16T08:59:51;11.55;;;2.08;;
35919;SDS011;36160;53.370;-6.196;2022-10-16T09:05:10;6.70;;;1.20;;
35919;SDS011;36160;53.370;-6.196;2022-10-16T09:07:52;15.00;;;2.47;;
35919;SDS011;36160;53.370;-6.196;2022-10-16T09:10:59;11.90;;;2.90;;
35919;SDS011;36160;53.370;-6.196;2022-10-16T09:13:43;12.93;;;2.58;;
35919;SDS011;36160;53.370;-6.196;2022-10-16T09:16:29;6.28;;;1.70;;
35919;SDS011;36160;53.370;-6.196;2022-10-16T09:19:17;4.30;;;1.42;;
35919;SDS011;36160;53.370;-6.196;2022-10-16T09:21:49;9.13;;;1.17;;
35919;SDS011;36160;53.370;-6.196;2022-10-16T09:24:24;7.85;;;1.63;;
35919;SDS011;36160;53.370;-6.196;2022-10-16T09:26:51;5.80;;;1.67;;
35919;SDS011;36160;53.370;-6.196;2022-10-16T09:29:17;5.05;;;2.03;;
35919;SDS011;36160;53.370;-6.196;2022-10-16T09:31:49;8.88;;;2.88;;
35919;SDS011;36160;53.370;-6.196;2022-10-16T09:37:04;13.52;;;2.40;;
35919;SDS011;36160;53.370;-6.196;2022-10-16T09:39:47;8.20;;;1.50;;
35919;SDS011;36160;53.370;-6.196;2022-10-16T09:42:33;6.97;;;1.90;;
35919;SDS011;36160;53.370;-6.196;2022-10-16T09:45:01;5.00;;;1.80;;
35919;SDS011;36160;53.370;-6.196;2022-10-16T09:47:28;6.75;;;1.98;;
35919;SDS011;36160;53.370;-6.196;2022-10-16T09:49:56;4.40;;;1.30;;
35919;SDS011;36160;53.370;-6.196;2022-10-16T09:52:30;9.52;;;1.83;;
35919;SDS011;36160;53.370;-6.196;2022-10-16T09:55:00;4.82;;;1.55;;
35919;SDS011;36160;53.370;-6.196;2022-10-16T09:57:28;3.83;;;1.80;;
35919;SDS011;36160;53.370;-6.196;2022-10-16T09:59:55;9.23;;;2.65;;
35919;SDS011;36160;53.370;-6.196;2022-10-16T10:02:35;9.18;;;2.00;;
35919;SDS011;36160;53.370;-6.196;2022-10-16T10:05:04;10.77;;;1.65;;
35919;SDS011;36160;53.370;-6.196;2022-10-16T10:07:42;6.50;;;1.50;;
35919;SDS011;36160;53.370;-6.196;2022-10-16T10:10:19;3.50;;;1.30;;
35919;SDS011;36160;53.370;-6.196;2022-10-16T10:12:46;5.32;;;1.23;;
35919;SDS011;36160;53.370;-6.196;2022-10-16T10:15:13;9.88;;;1.20;;
35919;SDS011;36160;53.370;-6.196;2022-10-16T10:17:49;6.57;;;1.00;;
35919;SDS011;36160;53.370;-6.196;2022-10-16T10:22:47;9.50;;;1.77;;
35919;SDS011;36160;53.370;-6.196;2022-10-16T10:30:30;9.63;;;1.42;;
35919;SDS011;36160;53.370;-6.196;2022-10-16T10:33:09;9.52;;;1.52;;
35919;SDS011;36160;53.370;-6.196;2022-10-16T10:44:54;7.05;;;2.47;;
35919;SDS011;36160;53.370;-6.196;2022-10-16T10:46:56;8.95;;;2.55;;
35919;SDS011;36160;53.370;-6.196;2022-10-16T10:49:42;11.27;;;3.10;;
35919;SDS011;36160;53.370;-6.196;2022-10-16T10:52:20;8.55;;;1.77;;
35919;SDS011;36160;53.370;-6.196;2022-10-16T10:58:19;7.40;;;1.83;;
35919;SDS011;36160;53.370;-6.196;2022-10-16T11:00:45;7.90;;;1.77;;
35919;SDS011;36160;53.370;-6.196;2022-10-16T11:08:38;6.05;;;1.98;;
35919;SDS011;36160;53.370;-6.196;2022-10-16T11:16:18;5.40;;;1.90;;
35919;SDS011;36160;53.370;-6.196;2022-10-16T11:21:23;10.00;;;1.67;;
35919;SDS011;36160;53.370;-6.196;2022-10-16T11:23:59;10.30;;;1.90;;
35919;SDS011;36160;53.370;-6.196;2022-10-16T11:26:33;6.90;;;1.10;;
35919;SDS011;36160;53.370;-6.196;2022-10-16T11:29:03;11.18;;;1.92;;
35919;SDS011;36160;53.370;-6.196;2022-10-16T11:31:40;8.50;;;1.38;;
35919;SDS011;36160;53.370;-6.196;2022-10-16T11:34:13;5.55;;;1.23;;
35919;SDS011;36160;53.370;-6.196;2022-10-16T11:39:33;15.07;;;1.65;;
35919;SDS011;36160;53.370;-6.196;2022-10-16T11:42:01;10.15;;;1.42;;
35919;SDS011;36160;53.370;-6.196;2022-10-16T11:47:51;3.42;;;1.42;;
35919;SDS011;36160;53.370;-6.196;2022-10-16T11:50:28;5.72;;;1.30;;
35919;SDS011;36160;53.370;-6.196;2022-10-16T11:55:46;3.97;;;1.30;;
35919;SDS011;36160;53.370;-6.196;2022-10-16T12:00:51;3.70;;;1.25;;
35919;SDS011;36160;53.370;-6.196;2022-10-16T12:03:22;6.97;;;0.90;;
35919;SDS011;36160;53.370;-6.196;2022-10-16T12:08:53;9.82;;;2.75;;
35919;SDS011;36160;53.370;-6.196;2022-10-16T12:13:50;5.38;;;1.02;;
35919;SDS011;36160;53.370;-6.196;2022-10-16T12:18:42;8.32;;;1.88;;
35919;SDS011;36160;53.370;-6.196;2022-10-16T12:21:09;5.93;;;1.55;;
35919;SDS011;36160;53.370;-6.196;2022-10-16T12:23:52;7.57;;;1.20;;
35919;SDS011;36160;53.370;-6.196;2022-10-16T12:26:26;14.73;;;2.10;;
35919;SDS011;36160;53.370;-6.196;2022-10-16T12:29:12;3.50;;;1.80;;
35919;SDS011;36160;53.370;-6.196;2022-10-16T12:31:42;8.82;;;2.35;;
35919;SDS011;36160;53.370;-6.196;2022-10-16T12:37:06;6.95;;;1.50;;
35919;SDS011;36160;53.370;-6.196;2022-10-16T12:39:38;7.32;;;2.15;;
35919;SDS011;36160;53.370;-6.196;2022-10-16T12:42:05;9.25;;;2.78;;
35919;SDS011;36160;53.370;-6.196;2022-10-16T12:45:21;9.30;;;3.00;;
35919;SDS011;36160;53.370;-6.196;2022-10-16T12:47:49;8.45;;;2.13;;
35919;SDS011;36160;53.370;-6.196;2022-10-16T12:50:33;6.13;;;1.65;;
35919;SDS011;36160;53.370;-6.196;2022-10-16T12:53:02;6.28;;;2.25;;
35919;SDS011;36160;53.370;-6.196;2022-10-16T12:55:32;9.93;;;2.20;;
35919;SDS011;36160;53.370;-6.196;2022-10-16T13:00:45;7.95;;;2.08;;
35919;SDS011;36160;53.370;-6.196;2022-10-16T13:14:34;11.00;;;3.22;;
35919;SDS011;36160;53.370;-6.196;2022-10-16T13:28:22;4.47;;;1.40;;
35919;SDS011;36160;53.370;-6.196;2022-10-16T13:30:56;13.45;;;1.60;;
35919;SDS011;36160;53.370;-6.196;2022-10-16T13:33:46;9.85;;;1.40;;
35919;SDS011;36160;53.370;-6.196;2022-10-16T13:36:19;6.50;;;1.35;;
35919;SDS011;36160;53.370;-6.196;2022-10-16T13:38:59;16.13;;;1.92;;
35919;SDS011;36160;53.370;-6.196;2022-10-16T13:41:31;7.47;;;1.40;;
35919;SDS011;36160;53.370;-6.196;2022-10-16T13:43:57;6.72;;;1.40;;
35919;SDS011;36160;53.370;-6.196;2022-10-16T13:46:23;5.20;;;1.77;;
35919;SDS011;36160;53.370;-6.196;2022-10-16T13:48:59;5.65;;;1.95;;
35919;SDS011;36160;53.370;-6.196;2022-10-16T13:51:36;4.97;;;1.33;;
35919;SDS011;36160;53.370;-6.196;2022-10-16T13:54:02;8.13;;;1.27;;
35919;SDS011;36160;53.370;-6.196;2022-10-16T13:56:29;9.18;;;3.40;;
35919;SDS011;36160;53.370;-6.196;2022-10-16T13:58:59;7.05;;;1.90;;
35919;SDS011;36160;53.370;-6.196;2022-10-16T14:01:27;7.05;;;2.00;;
35919;SDS011;36160;53.370;-6.196;2022-10-16T14:04:08;6.75;;;2.22;;
35919;SDS011;36160;53.370;-6.196;2022-10-16T14:06:36;8.02;;;1.92;;
35919;SDS011;36160;53.370;-6.196;2022-10-16T14:09:07;10.75;;;2.95;;
35919;SDS011;36160;53.370;-6.196;2022-10-16T14:11:44;7.25;;;1.95;;
35919;SDS011;36160;53.370;-6.196;2022-10-16T14:14:14;6.55;;;2.42;;
35919;SDS011;36160;53.370;-6.196;2022-10-16T14:16:40;9.02;;;1.95;;
35919;SDS011;36160;53.370;-6.196;2022-10-16T14:24:32;10.38;;;1.83;;
35919;SDS011;36160;53.370;-6.196;2022-10-16T14:26:59;9.20;;;2.08;;
35919;SDS011;36160;53.370;-6.196;2022-10-16T14:29:26;11.68;;;2.65;;
35919;SDS011;36160;53.370;-6.196;2022-10-16T14:32:05;13.73;;;3.47;;
35919;SDS011;36160;53.370;-6.196;2022-10-16T14:34:52;8.52;;;2.40;;
35919;SDS011;36160;53.370;-6.196;2022-10-16T14:39:51;9.93;;;2.28;;
35919;SDS011;36160;53.370;-6.196;2022-10-16T14:42:18;21.52;;;6.00;;
35919;SDS011;36160;53.370;-6.196;2022-10-16T14:44:45;12.65;;;3.70;;
35919;SDS011;36160;53.370;-6.196;2022-10-16T14:47:16;14.35;;;5.03;;
35919;SDS011;36160;53.370;-6.196;2022-10-16T14:49:47;17.92;;;7.05;;
35919;SDS011;36160;53.370;-6.196;2022-10-16T14:52:13;18.95;;;3.65;;
35919;SDS011;36160;53.370;-6.196;2022-10-16T14:54:39;17.83;;;5.00;;
35919;SDS011;36160;53.370;-6.196;2022-10-16T14:57:05;18.02;;;4.70;;
35919;SDS011;36160;53.370;-6.196;2022-10-16T14:59:40;11.60;;;3.55;;
35919;SDS011;36160;53.370;-6.196;2022-10-16T15:02:28;14.55;;;3.17;;
35919;SDS011;36160;53.370;-6.196;2022-10-16T15:04:56;10.13;;;2.88;;
35919;SDS011;36160;53.370;-6.196;2022-10-16T15:07:22;14.18;;;2.83;;
35919;SDS011;36160;53.370;-6.196;2022-10-16T15:09:48;16.15;;;2.38;;
35919;SDS011;36160;53.370;-6.196;2022-10-16T15:12:14;14.80;;;2.83;;
35919;SDS011;36160;53.370;-6.196;2022-10-16T15:14:40;12.65;;;2.30;;
35919;SDS011;36160;53.370;-6.196;2022-10-16T15:17:07;10.45;;;3.08;;
35919;SDS011;36160;53.370;-6.196;2022-10-16T15:19:36;26.80;;;4.15;;
35919;SDS011;36160;53.370;-6.196;2022-10-16T15:22:02;11.10;;;2.25;;
35919;SDS011;36160;53.370;-6.196;2022-10-16T15:24:28;19.88;;;2.78;;
35919;SDS011;36160;53.370;-6.196;2022-10-16T15:26:54;17.60;;;3.00;;
35919;SDS011;36160;53.370;-6.196;2022-10-16T15:29:19;15.32;;;3.50;;
35919;SDS011;36160;53.370;-6.196;2022-10-16T15:31:45;8.38;;;1.85;;
35919;SDS011;36160;53.370;-6.196;2022-10-16T15:34:12;10.88;;;2.05;;
35919;SDS011;36160;53.370;-6.196;2022-10-16T15:36:39;13.85;;;3.75;;
35919;SDS011;36160;53.370;-6.196;2022-10-16T15:39:06;10.95;;;2.28;;
35919;SDS011;36160;53.370;-6.196;2022-10-16T15:41:41;8.00;;;1.75;;
35919;SDS011;36160;53.370;-6.196;2022-10-16T15:44:07;15.48;;;2.10;;
35919;SDS011;36160;53.370;-6.196;2022-10-16T15:46:33;17.70;;;2.60;;
35919;SDS011;36160;53.370;-6.196;2022-10-16T15:49:00;10.18;;;1.90;;
35919;SDS011;36160;53.370;-6.196;2022-10-16T15:51:26;9.63;;;2.42;;
35919;SDS011;36160;53.370;-6.196;2022-10-16T15:53:58;11.93;;;2.83;;
35919;SDS011;36160;53.370;-6.196;2022-10-16T15:56:26;17.58;;;2.45;;
35919;SDS011;36160;53.370;-6.196;2022-10-16T15:58:53;15.55;;;3.33;;
35919;SDS011;36160;53.370;-6.196;2022-10-16T16:01:19;9.57;;;2.97;;
35919;SDS011;36160;53.370;-6.196;2022-10-16T16:03:45;10.57;;;2.63;;
35919;SDS011;36160;53.370;-6.196;2022-10-16T16:06:11;13.73;;;3.42;;
35919;SDS011;36160;53.370;-6.196;2022-10-16T16:08:38;12.80;;;4.05;;
35919;SDS011;36160;53.370;-6.196;2022-10-16T16:11:09;19.17;;;4.30;;
35919;SDS011;36160;53.370;-6.196;2022-10-16T16:16:13;14.00;;;3.15;;
35919;SDS011;36160;53.370;-6.196;2022-10-16T16:18:40;20.40;;;3.08;;
35919;SDS011;36160;53.370;-6.196;2022-10-16T16:21:07;20.17;;;4.28;;
35919;SDS011;36160;53.370;-6.196;2022-10-16T16:23:34;24.90;;;4.05;;
35919;SDS011;36160;53.370;-6.196;2022-10-16T16:26:04;27.25;;;4.90;;
35919;SDS011;36160;53.370;-6.196;2022-10-16T16:28:33;20.77;;;4.10;;
35919;SDS011;36160;53.370;-6.196;2022-10-16T16:30:59;22.48;;;3.85;;
35919;SDS011;36160;53.370;-6.196;2022-10-16T16:33:25;16.15;;;2.95;;
35919;SDS011;36160;53.370;-6.196;2022-10-16T16:35:50;21.05;;;4.47;;
35919;SDS011;36160;53.370;-6.196;2022-10-16T16:38:20;23.48;;;5.70;;
35919;SDS011;36160;53.370;-6.196;2022-10-16T16:40:46;27.63;;;6.00;;
35919;SDS011;36160;53.370;-6.196;2022-10-16T16:43:11;20.38;;;3.60;;
35919;SDS011;36160;53.370;-6.196;2022-10-16T16:45:37;21.60;;;4.93;;
35919;SDS011;36160;53.370;-6.196;2022-10-16T16:48:03;15.13;;;3.13;;
35919;SDS011;36160;53.370;-6.196;2022-10-16T16:50:31;16.02;;;2.83;;